createdAt,value
2018-03-20T00:00:05.841Z,4.67
2018-03-20T00:02:33.444Z,5.13
2018-03-20T00:05:01.069Z,5.43
2018-03-20T00:07:28.737Z,5.17
2018-03-20T00:09:56.408Z,4.97
2018-03-20T00:12:24.057Z,5.43
2018-03-20T00:14:51.607Z,5.60
2018-03-20T00:17:19.175Z,6.00
2018-03-20T00:19:46.716Z,5.50
2018-03-20T00:22:14.294Z,5.60
2018-03-20T00:24:41.966Z,5.70
2018-03-20T00:27:09.626Z,5.13
2018-03-20T00:29:37.167Z,5.57
2018-03-20T00:32:04.950Z,6.10
2018-03-20T00:34:32.516Z,5.50
2018-03-20T00:37:00.083Z,5.57
2018-03-20T00:39:27.665Z,5.70
2018-03-20T00:41:55.453Z,5.80
2018-03-20T00:44:23.774Z,5.67
2018-03-20T00:46:51.350Z,5.13
2018-03-20T00:49:19.027Z,4.73
2018-03-20T00:51:46.584Z,6.03
2018-03-20T00:54:14.242Z,5.40
2018-03-20T00:56:41.803Z,6.00
2018-03-20T00:59:09.348Z,6.20
2018-03-20T01:01:37.018Z,5.73
2018-03-20T01:04:04.679Z,5.83
2018-03-20T01:06:32.246Z,6.20
2018-03-20T01:08:59.821Z,6.33
2018-03-20T01:11:27.374Z,6.57
2018-03-20T01:13:54.932Z,6.47
2018-03-20T01:16:22.520Z,6.57
2018-03-20T01:18:50.870Z,5.80
2018-03-20T01:21:18.536Z,6.30
2018-03-20T01:23:46.107Z,5.83
2018-03-20T01:26:13.766Z,6.10
2018-03-20T01:28:41.311Z,6.77
2018-03-20T01:31:08.978Z,6.63
2018-03-20T01:33:36.644Z,6.17
2018-03-20T01:36:04.296Z,6.13
2018-03-20T01:38:31.858Z,6.50
2018-03-20T01:40:59.516Z,6.30
2018-03-20T01:43:27.090Z,6.57
2018-03-20T01:45:54.668Z,6.37
2018-03-20T01:48:22.213Z,6.03
2018-03-20T01:50:49.778Z,6.53
2018-03-20T01:53:19.179Z,6.93
2018-03-20T01:55:48.259Z,6.30
2018-03-20T01:58:15.830Z,6.10
2018-03-20T02:00:43.558Z,6.00
2018-03-20T02:03:11.104Z,5.83
2018-03-20T02:05:39.409Z,6.67
2018-03-20T02:08:06.994Z,6.70
2018-03-20T02:10:34.576Z,7.10
2018-03-20T02:13:02.217Z,6.87
2018-03-20T02:15:29.808Z,7.10
2018-03-20T02:17:57.363Z,7.37
2018-03-20T02:20:26.428Z,7.40
2018-03-20T02:22:54.003Z,6.97
2018-03-20T02:25:21.698Z,6.90
2018-03-20T02:27:50.007Z,6.73
2018-03-20T02:30:17.589Z,6.60
2018-03-20T02:32:45.314Z,7.27
2018-03-20T02:35:13.636Z,6.63
2018-03-20T02:37:41.309Z,7.37
2018-03-20T02:40:08.868Z,6.30
2018-03-20T02:42:36.421Z,6.77
2018-03-20T02:45:04.090Z,7.00
2018-03-20T02:47:31.627Z,7.43
2018-03-20T02:49:59.162Z,6.60
2018-03-20T02:52:26.744Z,6.87
2018-03-20T02:54:54.288Z,6.77
2018-03-20T02:57:21.901Z,6.30
2018-03-20T02:59:49.465Z,6.40
2018-03-20T03:02:17.123Z,6.40
2018-03-20T03:04:44.668Z,6.63
2018-03-20T03:07:12.270Z,7.00
2018-03-20T03:09:39.908Z,6.67
2018-03-20T03:12:07.579Z,6.80
2018-03-20T03:14:35.241Z,6.87
2018-03-20T03:17:02.793Z,6.80
2018-03-20T03:19:30.353Z,7.13
2018-03-20T03:21:58.019Z,6.40
2018-03-20T03:24:25.719Z,6.70
2018-03-20T03:26:54.040Z,7.47
2018-03-20T03:29:21.718Z,7.03
2018-03-20T03:31:49.263Z,7.13
2018-03-20T03:34:16.813Z,7.10
2018-03-20T03:36:44.378Z,7.43
2018-03-20T03:39:11.968Z,7.83
2018-03-20T03:41:39.524Z,7.73
2018-03-20T03:44:07.090Z,7.27
2018-03-20T03:46:34.751Z,6.57
2018-03-20T03:49:02.319Z,7.10
2018-03-20T03:51:29.884Z,7.00
2018-03-20T03:53:57.538Z,7.03
2018-03-20T03:56:25.098Z,7.67
2018-03-20T03:58:52.750Z,7.00
2018-03-20T04:01:20.296Z,8.27
2018-03-20T04:03:47.884Z,8.23
2018-03-20T04:06:15.546Z,7.20
2018-03-20T04:08:43.100Z,7.50
2018-03-20T04:11:10.663Z,8.00
2018-03-20T04:13:38.241Z,8.23
2018-03-20T04:16:05.797Z,7.33
2018-03-20T04:18:33.451Z,8.07
2018-03-20T04:21:01.018Z,8.23
2018-03-20T04:23:28.666Z,7.93
2018-03-20T04:25:56.221Z,7.90
2018-03-20T04:28:23.794Z,8.70
2018-03-20T04:30:51.363Z,8.83
2018-03-20T04:33:19.100Z,8.10
2018-03-20T04:35:46.672Z,9.07
2018-03-20T04:38:14.376Z,7.97
2018-03-20T04:40:41.930Z,8.50
2018-03-20T04:43:09.567Z,8.83
2018-03-20T04:45:37.218Z,8.93
2018-03-20T04:48:04.801Z,8.60
2018-03-20T04:50:32.366Z,7.90
2018-03-20T04:52:59.930Z,8.70
2018-03-20T04:55:27.495Z,8.33
2018-03-20T04:57:55.083Z,8.53
2018-03-20T05:00:23.441Z,7.60
2018-03-20T05:02:51.084Z,7.57
2018-03-20T05:05:19.698Z,8.73
2018-03-20T05:07:48.029Z,9.47
2018-03-20T05:10:15.573Z,7.93
2018-03-20T05:12:43.164Z,8.23
2018-03-20T05:15:10.729Z,8.80
2018-03-20T05:17:40.110Z,9.63
2018-03-20T05:23:29.225Z,9.83
2018-03-20T05:25:56.816Z,10.13
2018-03-20T05:28:25.141Z,10.33
2018-03-20T05:30:52.688Z,10.50
2018-03-20T05:33:20.275Z,9.90
2018-03-20T05:35:48.746Z,9.73
2018-03-20T05:38:16.306Z,10.33
2018-03-20T05:40:43.901Z,10.47
2018-03-20T05:43:11.447Z,9.90
2018-03-20T05:45:39.012Z,10.07
2018-03-20T05:48:12.353Z,11.03
2018-03-20T05:50:46.391Z,11.30
2018-03-20T05:53:13.992Z,10.70
2018-03-20T05:55:41.659Z,10.80
2018-03-20T05:58:09.304Z,11.90
2018-03-20T06:00:36.881Z,10.63
2018-03-20T06:03:04.533Z,12.03
2018-03-20T06:05:32.089Z,11.43
2018-03-20T06:07:59.746Z,11.03
2018-03-20T06:10:27.298Z,12.03
2018-03-20T06:12:54.842Z,15.07
2018-03-20T06:15:22.739Z,21.20
2018-03-20T06:17:50.318Z,34.43
2018-03-20T06:20:17.900Z,26.37
2018-03-20T06:22:46.260Z,14.60
2018-03-20T06:25:14.605Z,12.27
2018-03-20T06:27:42.197Z,12.30
2018-03-20T06:30:09.782Z,12.53
2018-03-20T06:32:38.094Z,11.77
2018-03-20T06:35:05.667Z,10.77
2018-03-20T06:37:33.224Z,13.57
2018-03-20T06:40:00.776Z,11.63
2018-03-20T06:42:28.341Z,11.43
2018-03-20T06:44:55.918Z,10.60
2018-03-20T06:47:23.548Z,12.77
2018-03-20T06:49:51.107Z,11.93
2018-03-20T06:52:19.434Z,12.07
2018-03-20T06:54:47.010Z,14.50
2018-03-20T06:57:14.579Z,13.57
2018-03-20T06:59:42.921Z,14.60
2018-03-20T07:02:10.480Z,13.47
2018-03-20T07:04:38.037Z,14.33
2018-03-20T07:07:05.726Z,10.23
2018-03-20T07:09:33.284Z,11.07
2018-03-20T07:12:00.857Z,11.10
2018-03-20T07:14:28.440Z,14.80
2018-03-20T07:16:56.765Z,13.20
2018-03-20T07:19:24.316Z,12.00
2018-03-20T07:21:51.876Z,12.40
2018-03-20T07:24:19.427Z,13.83
2018-03-20T07:26:47.017Z,14.10
2018-03-20T07:29:14.588Z,16.27
2018-03-20T07:31:42.144Z,14.97
2018-03-20T07:34:09.686Z,12.57
2018-03-20T07:36:37.272Z,15.47
2018-03-20T07:39:04.821Z,12.30
2018-03-20T07:41:32.371Z,11.87
2018-03-20T07:43:59.932Z,14.17
2018-03-20T07:46:27.505Z,12.97
2018-03-20T07:48:55.054Z,13.07
2018-03-20T07:51:22.627Z,10.43
2018-03-20T07:53:50.208Z,14.13
2018-03-20T07:56:17.760Z,10.63
2018-03-20T07:58:45.418Z,13.33
2018-03-20T08:01:12.951Z,9.93
2018-03-20T08:03:40.538Z,10.93
2018-03-20T08:06:08.119Z,13.70
2018-03-20T08:08:35.773Z,7.20
2018-03-20T08:11:03.348Z,8.70
2018-03-20T08:13:30.919Z,6.03
2018-03-20T08:15:59.242Z,6.63
2018-03-20T08:18:26.792Z,7.97
2018-03-20T08:20:54.351Z,8.00
2018-03-20T08:23:21.948Z,7.53
2018-03-20T08:25:49.498Z,5.00
2018-03-20T08:28:17.252Z,5.07
2018-03-20T08:30:44.833Z,4.23
2018-03-20T08:33:12.390Z,5.40
2018-03-20T08:35:40.054Z,3.47
2018-03-20T08:38:07.602Z,4.47
2018-03-20T08:40:35.170Z,4.47
2018-03-20T08:43:02.726Z,4.37
2018-03-20T08:45:30.279Z,3.33
2018-03-20T08:47:57.845Z,4.07
2018-03-20T08:50:25.431Z,4.33
2018-03-20T08:52:52.980Z,5.13
2018-03-20T08:55:20.540Z,4.37
2018-03-20T08:57:48.227Z,4.83
2018-03-20T09:00:15.816Z,4.13
2018-03-20T09:02:44.145Z,5.33
2018-03-20T09:05:11.812Z,4.57
2018-03-20T09:07:39.360Z,4.40
2018-03-20T09:10:06.946Z,3.60
2018-03-20T09:12:34.749Z,4.13
2018-03-20T09:15:02.249Z,4.47
2018-03-20T09:17:29.803Z,4.03
2018-03-20T09:19:57.366Z,4.77
2018-03-20T09:22:24.906Z,3.50
2018-03-20T09:24:52.459Z,3.77
2018-03-20T09:27:20.900Z,2.50
2018-03-20T09:29:48.489Z,3.30
2018-03-20T09:32:16.812Z,4.93
2018-03-20T09:34:44.409Z,3.63
2018-03-20T09:37:12.027Z,4.00
2018-03-20T09:39:39.619Z,3.37
2018-03-20T09:42:07.270Z,3.87
2018-03-20T09:44:34.826Z,4.53
2018-03-20T09:47:02.395Z,4.37
2018-03-20T09:49:30.083Z,4.17
2018-03-20T09:51:57.661Z,3.80
2018-03-20T09:54:25.970Z,4.17
2018-03-20T09:56:53.561Z,4.03
2018-03-20T09:59:21.121Z,3.60
2018-03-20T10:01:48.670Z,3.50
2018-03-20T10:04:16.230Z,4.03
2018-03-20T10:06:43.776Z,2.80
2018-03-20T10:09:11.360Z,2.73
2018-03-20T10:11:38.923Z,3.20
2018-03-20T10:14:06.509Z,3.03
2018-03-20T10:16:34.164Z,3.10
2018-03-20T10:19:01.744Z,3.23
2018-03-20T10:21:30.276Z,3.60
2018-03-20T10:23:57.858Z,2.20
2018-03-20T10:26:25.589Z,2.70
2018-03-20T10:28:53.140Z,3.20
2018-03-20T10:31:20.686Z,3.13
2018-03-20T10:33:49.126Z,3.50
2018-03-20T10:36:16.661Z,3.03
2018-03-20T10:38:44.197Z,2.83
2018-03-20T10:41:12.526Z,3.27
2018-03-20T10:43:40.149Z,2.00
2018-03-20T10:46:07.755Z,2.23
2018-03-20T10:48:35.319Z,2.23
2018-03-20T10:51:02.979Z,2.70
2018-03-20T10:53:30.582Z,2.30
2018-03-20T10:55:59.017Z,2.63
2018-03-20T10:58:26.582Z,2.77
2018-03-20T11:00:59.946Z,2.83
2018-03-20T11:03:27.498Z,2.40
2018-03-20T11:05:55.089Z,2.20
2018-03-20T11:08:22.651Z,2.23
2018-03-20T11:10:50.197Z,2.23
2018-03-20T11:13:17.742Z,2.80
2018-03-20T11:15:45.339Z,2.17
2018-03-20T11:18:12.888Z,2.20
2018-03-20T11:20:40.451Z,2.40
2018-03-20T11:23:08.011Z,2.33
2018-03-20T11:25:35.551Z,2.30
2018-03-20T11:28:03.103Z,2.40
2018-03-20T11:30:30.662Z,2.10
2018-03-20T11:32:58.210Z,2.33
2018-03-20T11:35:26.519Z,2.73
2018-03-20T11:37:54.211Z,1.93
2018-03-20T11:40:21.811Z,1.70
2018-03-20T11:42:50.127Z,2.53
2018-03-20T11:45:17.713Z,2.20
2018-03-20T11:47:45.392Z,2.03
2018-03-20T11:50:13.026Z,1.80
2018-03-20T11:52:40.680Z,2.20
2018-03-20T11:55:08.257Z,1.90
2018-03-20T11:57:35.808Z,1.60
2018-03-20T12:00:03.358Z,3.00
2018-03-20T12:02:30.978Z,7.47
2018-03-20T12:04:59.292Z,2.33
2018-03-20T12:07:26.852Z,4.93
2018-03-20T12:09:54.432Z,4.70
2018-03-20T12:12:21.968Z,1.73
2018-03-20T12:14:49.537Z,2.00
2018-03-20T12:17:17.095Z,1.50
2018-03-20T12:19:44.665Z,2.00
2018-03-20T12:22:12.229Z,1.70
2018-03-20T12:24:39.782Z,2.00
2018-03-20T12:27:07.350Z,1.93
2018-03-20T12:29:34.930Z,2.00
2018-03-20T12:32:02.477Z,2.10
2018-03-20T12:34:30.033Z,1.90
2018-03-20T12:36:57.609Z,1.80
2018-03-20T12:39:25.244Z,1.97
2018-03-20T12:41:52.812Z,1.93
2018-03-20T12:44:20.368Z,1.93
2018-03-20T12:46:47.945Z,1.90
2018-03-20T12:49:15.468Z,1.80
2018-03-20T12:51:43.060Z,2.30
2018-03-20T12:54:10.621Z,2.03
2018-03-20T12:56:38.301Z,2.20
2018-03-20T12:59:05.867Z,1.63
2018-03-20T13:01:34.188Z,1.90
2018-03-20T13:04:01.764Z,1.90
2018-03-20T13:06:29.341Z,1.80
2018-03-20T13:08:56.900Z,2.13
2018-03-20T13:11:24.443Z,1.80
2018-03-20T13:13:52.026Z,2.00
2018-03-20T13:16:19.569Z,2.17
2018-03-20T13:18:47.132Z,2.20
2018-03-20T13:21:14.699Z,2.00
2018-03-20T13:23:42.239Z,2.40
2018-03-20T13:26:09.798Z,2.30
2018-03-20T13:28:37.387Z,1.80
2018-03-20T13:31:04.931Z,2.40
2018-03-20T13:33:32.501Z,2.30
2018-03-20T13:36:00.049Z,1.97
2018-03-20T13:38:27.620Z,2.30
2018-03-20T13:40:55.181Z,2.27
2018-03-20T13:43:22.857Z,1.90
2018-03-20T13:45:50.508Z,1.67
2018-03-20T13:48:18.057Z,2.20
2018-03-20T13:50:45.737Z,2.00
2018-03-20T13:53:13.305Z,1.80
2018-03-20T13:55:41.852Z,2.27
2018-03-20T13:58:09.432Z,1.93
2018-03-20T14:00:36.988Z,2.00
2018-03-20T14:03:04.548Z,2.23
2018-03-20T14:05:32.103Z,2.13
2018-03-20T14:07:59.676Z,2.00
2018-03-20T14:10:27.248Z,1.77
2018-03-20T14:12:54.814Z,2.10
2018-03-20T14:15:22.462Z,2.00
2018-03-20T14:17:50.110Z,1.83
2018-03-20T14:20:17.671Z,2.53
2018-03-20T14:22:45.216Z,1.93
2018-03-20T14:25:12.772Z,1.93
2018-03-20T14:27:40.349Z,1.53
2018-03-20T14:30:07.904Z,1.67
2018-03-20T14:32:35.448Z,2.10
2018-03-20T14:35:03.021Z,1.53
2018-03-20T14:37:30.604Z,1.90
2018-03-20T14:39:58.943Z,2.00
2018-03-20T14:42:26.498Z,2.37
2018-03-20T14:44:54.051Z,2.00
2018-03-20T14:47:21.613Z,2.20
2018-03-20T14:49:50.036Z,2.60
2018-03-20T14:52:17.595Z,1.63
2018-03-20T14:54:45.144Z,1.83
2018-03-20T14:57:12.703Z,1.60
2018-03-20T14:59:40.265Z,1.80
2018-03-20T15:02:07.808Z,1.90
2018-03-20T15:04:35.367Z,1.53
2018-03-20T15:07:02.971Z,1.40
2018-03-20T15:09:30.527Z,1.80
2018-03-20T15:11:58.178Z,1.70
2018-03-20T15:14:25.722Z,1.70
2018-03-20T15:16:53.282Z,1.80
2018-03-20T15:19:20.872Z,1.40
2018-03-20T15:21:48.421Z,1.70
2018-03-20T15:24:15.972Z,1.43
2018-03-20T15:26:43.558Z,1.33
2018-03-20T15:29:12.922Z,1.43
2018-03-20T15:31:40.449Z,1.60
2018-03-20T15:34:08.800Z,1.53
2018-03-20T15:36:36.442Z,1.93
2018-03-20T15:39:03.997Z,1.80
2018-03-20T15:41:31.575Z,1.50
2018-03-20T15:43:59.248Z,1.50
2018-03-20T15:46:26.820Z,1.80
2018-03-20T15:48:54.384Z,1.93
2018-03-20T15:51:21.934Z,2.20
2018-03-20T15:53:49.486Z,1.90
2018-03-20T15:56:17.040Z,2.80
2018-03-20T15:58:44.684Z,1.63
2018-03-20T16:01:12.233Z,2.10
2018-03-20T16:03:39.821Z,1.90
2018-03-20T16:06:07.378Z,1.93
2018-03-20T16:08:34.919Z,1.57
2018-03-20T16:11:02.475Z,1.37
2018-03-20T16:13:30.050Z,1.43
2018-03-20T16:15:57.599Z,1.67
2018-03-20T16:18:25.141Z,1.80
2018-03-20T16:20:52.734Z,1.70
2018-03-20T16:23:20.282Z,1.37
2018-03-20T16:25:47.846Z,1.70
2018-03-20T16:28:15.425Z,1.70
2018-03-20T16:30:43.019Z,1.43
2018-03-20T16:33:11.538Z,1.63
2018-03-20T16:35:39.084Z,1.60
2018-03-20T16:38:06.683Z,1.67
2018-03-20T16:40:34.250Z,1.73
2018-03-20T16:43:01.810Z,1.60
2018-03-20T16:45:29.486Z,1.73
2018-03-20T16:47:57.059Z,1.53
2018-03-20T16:50:25.371Z,1.50
2018-03-20T16:52:52.911Z,1.47
2018-03-20T16:55:21.320Z,1.73
2018-03-20T16:57:48.866Z,1.90
2018-03-20T17:00:16.445Z,1.37
2018-03-20T17:02:44.021Z,1.83
2018-03-20T17:05:11.561Z,1.93
2018-03-20T17:07:39.102Z,1.50
2018-03-20T17:10:06.689Z,1.30
2018-03-20T17:12:34.254Z,1.30
2018-03-20T17:15:01.823Z,1.50
2018-03-20T17:17:29.488Z,1.37
2018-03-20T17:19:57.030Z,1.67
2018-03-20T17:22:24.597Z,1.70
2018-03-20T17:24:52.277Z,1.80
2018-03-20T17:27:19.950Z,1.40
2018-03-20T17:29:47.492Z,1.57
2018-03-20T17:32:15.149Z,1.70
2018-03-20T17:34:42.711Z,1.87
2018-03-20T17:37:10.285Z,1.30
2018-03-20T17:39:37.863Z,1.90
2018-03-20T17:42:05.417Z,1.47
2018-03-20T17:44:32.964Z,1.97
2018-03-20T17:47:00.548Z,1.77
2018-03-20T17:49:28.098Z,1.77
2018-03-20T17:51:55.652Z,1.67
2018-03-20T17:54:23.211Z,1.93
2018-03-20T17:56:51.310Z,1.93
2018-03-20T17:59:19.631Z,2.53
2018-03-20T18:01:47.195Z,2.17
2018-03-20T18:04:14.767Z,2.30
2018-03-20T18:06:42.323Z,1.93
2018-03-20T18:09:09.957Z,2.30
2018-03-20T18:11:37.535Z,2.13
2018-03-20T18:14:05.091Z,2.37
2018-03-20T18:16:33.125Z,2.13
2018-03-20T18:19:01.453Z,2.00
2018-03-20T18:21:29.023Z,2.40
2018-03-20T18:23:56.638Z,2.37
2018-03-20T18:26:24.940Z,2.23
2018-03-20T18:28:52.489Z,2.40
2018-03-20T18:31:20.059Z,3.30
2018-03-20T18:33:47.617Z,2.63
2018-03-20T18:36:15.163Z,3.10
2018-03-20T18:38:42.734Z,2.37
2018-03-20T18:41:10.318Z,2.37
2018-03-20T18:43:37.881Z,2.93
2018-03-20T18:46:05.543Z,2.40
2018-03-20T18:48:33.133Z,2.50
2018-03-20T18:51:00.706Z,2.30
2018-03-20T18:53:29.055Z,2.57
2018-03-20T18:55:56.623Z,2.43
2018-03-20T18:58:24.268Z,2.07
2018-03-20T19:00:51.830Z,2.33
2018-03-20T19:03:19.475Z,2.07
2018-03-20T19:05:47.151Z,1.93
2018-03-20T19:08:14.723Z,2.07
2018-03-20T19:10:42.280Z,2.80
2018-03-20T19:13:09.839Z,2.57
2018-03-20T19:15:37.415Z,2.37
2018-03-20T19:18:05.050Z,2.50
2018-03-20T19:20:32.603Z,2.50
2018-03-20T19:23:00.158Z,2.00
2018-03-20T19:25:27.732Z,2.73
2018-03-20T19:27:55.338Z,2.57
2018-03-20T19:30:23.706Z,2.47
2018-03-20T19:32:51.237Z,3.33
2018-03-20T19:35:18.809Z,2.00
2018-03-20T19:37:46.373Z,2.67
2018-03-20T19:40:13.930Z,2.20
2018-03-20T19:42:41.579Z,2.73
2018-03-20T19:45:09.157Z,2.03
2018-03-20T19:47:36.706Z,1.73
2018-03-20T19:50:04.266Z,1.93
2018-03-20T19:52:31.866Z,2.50
2018-03-20T19:55:00.178Z,2.00
2018-03-20T19:57:27.828Z,2.40
2018-03-20T19:59:55.419Z,2.73
2018-03-20T20:02:23.013Z,2.33
2018-03-20T20:04:50.643Z,2.23
2018-03-20T20:07:18.233Z,2.43
2018-03-20T20:09:45.834Z,2.33
2018-03-20T20:12:13.512Z,2.27
2018-03-20T20:14:41.068Z,1.87
2018-03-20T20:17:08.621Z,2.20
2018-03-20T20:19:36.182Z,2.00
2018-03-20T20:22:03.757Z,2.17
2018-03-20T20:24:31.300Z,2.33
2018-03-20T20:26:58.844Z,2.00
2018-03-20T20:29:27.247Z,1.90
2018-03-20T20:31:54.818Z,2.27
2018-03-20T20:34:22.389Z,2.27
2018-03-20T20:36:49.986Z,1.73
2018-03-20T20:39:17.546Z,2.57
2018-03-20T20:41:45.096Z,2.63
2018-03-20T20:44:12.637Z,2.43
2018-03-20T20:46:40.182Z,1.80
2018-03-20T20:49:07.758Z,3.10
2018-03-20T20:51:35.336Z,3.40
2018-03-20T20:54:02.884Z,1.97
2018-03-20T20:56:30.447Z,1.70
2018-03-20T20:58:58.345Z,2.80
2018-03-20T21:01:25.922Z,2.57
2018-03-20T21:03:53.638Z,2.27
2018-03-20T21:06:21.209Z,2.63
2018-03-20T21:08:48.761Z,2.37
2018-03-20T21:11:16.316Z,2.70
2018-03-20T21:13:43.887Z,2.13
2018-03-20T21:16:12.217Z,2.43
2018-03-20T21:18:39.771Z,2.73
2018-03-20T21:21:07.325Z,2.37
2018-03-20T21:23:34.892Z,3.10
2018-03-20T21:26:02.469Z,2.53
2018-03-20T21:28:30.170Z,2.30
2018-03-20T21:30:57.726Z,2.13
2018-03-20T21:33:25.271Z,3.00
2018-03-20T21:35:52.835Z,2.83
2018-03-20T21:38:20.377Z,2.80
2018-03-20T21:40:47.922Z,2.67
2018-03-20T21:43:15.498Z,2.77
2018-03-20T21:45:43.044Z,2.97
2018-03-20T21:48:10.616Z,3.00
2018-03-20T21:50:38.182Z,3.17
2018-03-20T21:53:05.739Z,3.17
2018-03-20T21:55:33.283Z,2.93
2018-03-20T21:58:00.843Z,3.03
2018-03-20T22:00:28.466Z,2.80
2018-03-20T22:02:57.522Z,3.20
2018-03-20T22:05:25.074Z,2.90
2018-03-20T22:07:52.634Z,2.67
2018-03-20T22:10:20.207Z,3.30
2018-03-20T22:12:47.787Z,2.60
2018-03-20T22:15:15.338Z,3.20
2018-03-20T22:17:42.886Z,3.20
2018-03-20T22:20:10.464Z,3.03
2018-03-20T22:22:38.125Z,3.83
2018-03-20T22:25:05.672Z,3.87
2018-03-20T22:27:33.240Z,4.30
2018-03-20T22:30:00.779Z,3.67
2018-03-20T22:32:28.320Z,3.80
2018-03-20T22:34:56.751Z,4.20
2018-03-20T22:37:24.293Z,4.20
2018-03-20T22:39:51.843Z,3.90
2018-03-20T22:42:19.409Z,4.70
2018-03-20T22:44:46.974Z,4.50
2018-03-20T22:47:14.573Z,4.03
2018-03-20T22:49:42.215Z,4.20
2018-03-20T22:52:09.760Z,4.90
2018-03-20T22:54:37.345Z,5.67
2018-03-20T22:57:05.003Z,3.33
2018-03-20T22:59:32.548Z,4.77
2018-03-20T23:02:00.095Z,3.57
2018-03-20T23:04:27.653Z,5.37
2018-03-20T23:06:55.208Z,4.93
2018-03-20T23:09:22.813Z,4.83
2018-03-20T23:11:50.474Z,4.77
2018-03-20T23:14:18.049Z,5.43
2018-03-20T23:16:45.694Z,6.23
2018-03-20T23:19:13.238Z,6.00
2018-03-20T23:21:40.799Z,7.00
2018-03-20T23:24:08.375Z,6.60
2018-03-20T23:26:36.051Z,6.83
2018-03-20T23:29:03.599Z,7.20
2018-03-20T23:31:31.143Z,6.50
2018-03-20T23:33:58.715Z,7.43
2018-03-20T23:36:26.264Z,7.60
2018-03-20T23:38:53.828Z,8.10
2018-03-20T23:41:21.398Z,8.93
2018-03-20T23:43:48.960Z,9.23
2018-03-20T23:46:16.534Z,8.43
2018-03-20T23:48:44.187Z,9.10
2018-03-20T23:51:11.731Z,9.80
2018-03-20T23:53:39.307Z,8.70
2018-03-20T23:56:06.874Z,7.63
2018-03-20T23:58:34.427Z,8.57
